ADDS METAR Data INFO
IDs: Format: Raw Decoded Include TAF

Data at: 0730 UTC 18 Oct 2017

KGTF 180653Z 27013KT 10SM CLR 13/M02 A2988 RMK AO2 PK WND 26030/0555 SLP100 T01281022 402280100
KGTF 180553Z 26021G33KT 10SM CLR 14/M02 A2984 RMK AO2 PK WND 25047/0506 SLP084 T01391022 10200 20139 53037
KGTF 180453Z 25025G42KT 10SM CLR 15/M03 A2977 RMK AO2 PK WND 24047/0402 SLP063 T01501033
KGTF 180353Z 25027G40KT 10SM CLR 16/M04 A2973 RMK AO2 PK WND 25040/0339 SLP050 T01561044
KGTF 180253Z 24026G41KT 10SM CLR 16/M05 A2971 RMK AO2 PK WND 24044/0200 SLP048 T01611050 53025
KGTF 180153Z 24036G50KT 10SM CLR 18/M06 A2966 RMK AO2 PK WND 23053/0126 SLP033 T01781061
KGTF 180053Z 24029G47KT 10SM CLR 19/M07 A2965 RMK AO2 PK WND 24048/0026 SLP023 T01891067
KGTF 172353Z 23025G40KT 10SM CLR 20/M08 A2963 RMK AO2 PK WND 23041/2341 SLP015 T02001078 10228 20189 56019
KGTF 172253Z 23026G40KT 10SM CLR 22/M06 A2964 RMK AO2 PK WND 22046/2239 SLP015 T02171061
KGTF 172153Z 24025G41KT 10SM CLR 23/M07 A2967 RMK AO2 PK WND 25046/2112 SLP025 T02281067
KGTF 172053Z 25034G46KT 10SM CLR 23/M08 A2969 RMK AO2 PK WND 24046/2046 SLP033 T02281078 56041
KGTF 171953Z 22026G43KT 10SM CLR 22/M07 A2973 RMK AO2 PK WND 22043/1929 SLP046 T02221072
KGTF 171853Z 21025G38KT 10SM CLR 20/M07 A2977 RMK AO2 PK WND 22044/1815 SLP064 T02001067
KGTF 171753Z 23026G37KT 10SM CLR 21/M07 A2983 RMK AO2 PK WND 22044/1705 SLP081 T02061072 10206 20100 58026
KGTF 171653Z 22023G34KT 10SM CLR 18/M06 A2986 RMK AO2 PK WND 21034/1645 PRESFR SLP098 T01831061
KGTF 171553Z 21023G29KT 10SM CLR 16/M06 A2989 RMK AO2 PK WND 21030/1542 SLP110 T01611061
KGTF 171453Z 21017KT 10SM CLR 13/M06 A2991 RMK AO2 SLP121 T01331061 58013
KGTF 171353Z 18010KT 10SM CLR 10/M06 A2993 RMK AO2 SLP133 T01001061
KGTF 171253Z 22014KT 10SM CLR 13/M06 A2995 RMK AO2 SLP132 T01331061
KGTF 171153Z 21012KT 10SM CLR 13/M06 A2996 RMK AO2 SLP132 T01281061 10144 20117 55007
KGTF 171053Z 22019G27KT 10SM CLR 13/M06 A2996 RMK AO2 PK WND 23027/1017 SLP128 T01331061
KGTF 170953Z 23019KT 10SM CLR 13/M06 A2996 RMK AO2 PK WND 21026/0914 SLP131 T01281056
KGTF 170853Z 22018G26KT 10SM CLR 13/M06 A2998 RMK AO2 PK WND 23031/0822 SLP137 T01281056 56005
KGTF 170753Z 23017KT 10SM CLR 13/M05 A2998 RMK AO2 PK WND 22026/0741 SLP137 T01331050
KGTF 170653Z 22017G26KT 10SM CLR 13/M05 A2998 RMK AO2 PK WND 24026/0644 SLP140 T01281050 402000106
KGTF 170553Z 22018KT 10SM CLR 13/M05 A3000 RMK AO2 SLP147 T01331050 10172 20122 56015
KGTF 170453Z 24016KT 10SM CLR 12/M06 A3002 RMK AO2 PK WND 23026/0401 SLP156 T01221056
KGTF 170353Z 23018G27KT 10SM CLR 14/M06 A3003 RMK AO2 PK WND 23027/0348 SLP161 T01391061
KGTF 170253Z 23014G21KT 10SM CLR 14/M07 A3005 RMK AO2 PK WND 24027/0213 SLP169 T01391067 53002
KGTF 170153Z 24016G23KT 10SM CLR 14/M07 A3004 RMK AO2 SLP169 T01441072
KGTF 170053Z 23014KT 10SM CLR 15/M07 A3004 RMK AO2 SLP167 T01501072
KGTF 162353Z 24015G28KT 10SM CLR 17/M08 A3004 RMK AO2 PK WND 23032/2312 SLP162 T01721078 10200 20167 56009
KGTF 162253Z 24020G32KT 10SM CLR 19/M08 A3006 RMK AO2 PK WND 24039/2215 SLP165 T01891078
KGTF 162153Z 24027G35KT 10SM CLR 19/M08 A3005 RMK AO2 PK WND 23036/2059 SLP161 T01941078
KGTF 162053Z 23019G31KT 10SM CLR 19/M08 A3007 RMK AO2 PK WND 23041/2029 SLP168 T01941078
KGTF 161953Z 22023G33KT 10SM CLR 18/M08 A3009 RMK AO2 PK WND 21033/1946 SLP177 T01831078